createdAt,value
2023-02-05T00:01:55.643Z,-3.27
2023-02-05T00:03:54.123Z,-3.23
2023-02-05T00:05:52.297Z,-3.27
2023-02-05T00:07:50.523Z,-3.21
2023-02-05T00:09:48.583Z,-3.18
2023-02-05T00:11:47.151Z,-3.20
2023-02-05T00:13:45.885Z,-3.23
2023-02-05T00:15:45.708Z,-3.22
2023-02-05T00:17:44.195Z,-3.20
2023-02-05T00:19:42.382Z,-3.12
2023-02-05T00:21:40.674Z,-3.06
2023-02-05T00:23:39.874Z,-3.09
2023-02-05T00:25:38.111Z,-3.16
2023-02-05T00:27:36.420Z,-3.28
2023-02-05T00:29:34.493Z,-3.32
2023-02-05T00:31:34.278Z,-3.34
2023-02-05T00:33:33.019Z,-3.38
2023-02-05T00:35:31.467Z,-3.35
2023-02-05T00:37:29.736Z,-3.38
2023-02-05T00:39:27.999Z,-3.32
2023-02-05T00:41:26.212Z,-3.33
2023-02-05T00:43:24.517Z,-3.33
2023-02-05T00:45:22.691Z,-3.29
2023-02-05T00:47:22.356Z,-3.34
2023-02-05T00:49:20.837Z,-3.35
2023-02-05T00:51:19.008Z,-3.45
2023-02-05T00:53:17.261Z,-3.43
2023-02-05T00:55:15.475Z,-3.45
2023-02-05T00:57:13.659Z,-3.46
2023-02-05T00:59:11.997Z,-3.42
2023-02-05T01:01:10.291Z,-3.39
2023-02-05T01:03:09.979Z,-3.33
2023-02-05T01:05:09.132Z,-3.27
2023-02-05T01:07:07.372Z,-3.28
2023-02-05T01:09:05.629Z,-3.34
2023-02-05T01:11:08.304Z,-3.38
2023-02-05T01:13:07.833Z,-3.38
2023-02-05T01:15:08.190Z,-3.35
2023-02-05T01:17:06.460Z,-3.44
2023-02-05T01:19:05.997Z,-3.44
2023-02-05T01:21:04.463Z,-3.55
2023-02-05T01:23:02.668Z,-3.60
2023-02-05T01:25:00.657Z,-3.66
2023-02-05T01:26:59.062Z,-3.66
2023-02-05T01:28:57.228Z,-3.58
2023-02-05T01:30:55.552Z,-3.58
2023-02-05T01:32:53.950Z,-3.63
2023-02-05T01:34:53.969Z,-3.66
2023-02-05T01:36:52.335Z,-3.67
2023-02-05T01:38:50.622Z,-3.63
2023-02-05T01:40:48.793Z,-3.60
2023-02-05T01:42:46.908Z,-3.75
2023-02-05T01:44:45.186Z,-3.69
2023-02-05T01:46:45.629Z,-3.71
2023-02-05T01:48:47.126Z,-3.72
2023-02-05T01:50:49.912Z,-3.74
2023-02-05T01:52:48.356Z,-3.71
2023-02-05T01:54:48.860Z,-3.72
2023-02-05T01:56:52.221Z,-3.63
2023-02-05T01:58:54.338Z,-3.59
2023-02-05T02:00:52.937Z,-3.55
2023-02-05T02:02:51.252Z,-3.65
2023-02-05T02:04:53.521Z,-3.70
2023-02-05T02:06:53.177Z,-3.79
2023-02-05T02:08:51.412Z,-3.89
2023-02-05T02:10:51.073Z,-3.83
2023-02-05T02:12:51.410Z,-3.92
2023-02-05T02:14:52.795Z,-3.90
2023-02-05T02:16:53.153Z,-3.91
2023-02-05T02:18:52.669Z,-3.85
2023-02-05T02:21:02.161Z,-3.85
2023-02-05T02:23:14.808Z,-3.94
2023-02-05T02:25:45.181Z,-3.85
2023-02-05T02:27:50.812Z,-3.90
2023-02-05T02:29:56.624Z,-4.02
2023-02-05T02:32:00.797Z,-4.04
2023-02-05T02:34:03.668Z,-4.08
2023-02-05T02:36:07.930Z,-4.11
2023-02-05T02:38:13.169Z,-4.07
2023-02-05T02:40:17.019Z,-4.14
2023-02-05T02:42:21.933Z,-4.20
2023-02-05T02:44:26.025Z,-4.26
2023-02-05T02:46:29.130Z,-4.21
2023-02-05T02:48:30.519Z,-4.27
2023-02-05T02:50:33.242Z,-4.24
2023-02-05T02:52:37.128Z,-4.20
2023-02-05T02:54:37.116Z,-4.25
2023-02-05T02:56:40.604Z,-4.26
2023-02-05T02:58:42.551Z,-4.30
2023-02-05T03:00:45.275Z,-4.32
2023-02-05T03:02:46.640Z,-4.37
2023-02-05T03:04:49.214Z,-4.43
2023-02-05T03:06:50.295Z,-4.35
2023-02-05T03:08:55.032Z,-4.30
2023-02-05T03:11:00.904Z,-4.54
2023-02-05T03:13:00.773Z,-4.43
2023-02-05T03:15:00.829Z,-4.38
2023-02-05T03:17:01.139Z,-4.32
2023-02-05T03:19:02.969Z,-4.34
2023-02-05T03:21:04.481Z,-4.36
2023-02-05T03:23:02.720Z,-4.31
2023-02-05T03:25:02.173Z,-4.33
2023-02-05T03:27:01.861Z,-4.07
2023-02-05T03:29:03.679Z,-4.10
2023-02-05T03:31:09.507Z,-4.23
2023-02-05T03:33:22.868Z,-4.40
2023-02-05T03:35:30.191Z,-4.53
2023-02-05T03:37:42.448Z,-4.56
2023-02-05T03:39:51.363Z,-4.62
2023-02-05T03:41:59.186Z,-4.54
2023-02-05T03:44:13.249Z,-4.36
2023-02-05T03:46:18.907Z,-4.49
2023-02-05T03:48:39.137Z,-4.62
2023-02-05T03:50:42.433Z,-4.50
2023-02-05T03:52:45.271Z,-4.50
2023-02-05T03:54:52.326Z,-4.66
2023-02-05T03:57:01.169Z,-4.70
2023-02-05T03:59:00.710Z,-4.73
2023-02-05T04:00:59.408Z,-4.74
2023-02-05T04:02:58.627Z,-4.74
2023-02-05T04:05:02.917Z,-4.72
2023-02-05T04:07:01.375Z,-4.73
2023-02-05T04:08:59.673Z,-4.70
2023-02-05T04:10:57.950Z,-4.81
2023-02-05T04:12:56.841Z,-4.80
2023-02-05T04:14:55.029Z,-4.85
2023-02-05T04:16:53.522Z,-4.85
2023-02-05T04:18:54.229Z,-4.85
2023-02-05T04:20:54.112Z,-4.84
2023-02-05T04:22:55.704Z,-4.68
2023-02-05T04:24:54.792Z,-4.75
2023-02-05T04:26:53.418Z,-4.90
2023-02-05T04:28:52.187Z,-4.93
2023-02-05T04:30:51.132Z,-4.96
2023-02-05T04:32:49.391Z,-4.85
2023-02-05T04:34:49.132Z,-4.96
2023-02-05T04:36:48.910Z,-4.97
2023-02-05T04:38:47.604Z,-5.10
2023-02-05T04:40:46.688Z,-5.19
2023-02-05T04:42:45.402Z,-5.12
2023-02-05T04:44:43.547Z,-5.14
2023-02-05T04:46:41.710Z,-5.18
2023-02-05T04:48:40.832Z,-5.21
2023-02-05T04:50:39.477Z,-5.21
2023-02-05T04:52:39.093Z,-5.29
2023-02-05T04:54:38.408Z,-5.32
2023-02-05T04:56:36.558Z,-5.32
2023-02-05T04:58:35.087Z,-5.31
2023-02-05T05:00:33.408Z,-5.29
2023-02-05T05:02:31.641Z,-5.14
2023-02-05T05:04:29.933Z,-4.98
2023-02-05T05:06:28.209Z,-5.14
2023-02-05T05:08:27.824Z,-5.26
2023-02-05T05:10:26.176Z,-5.32
2023-02-05T05:12:24.240Z,-5.35
2023-02-05T05:14:22.585Z,-5.36
2023-02-05T05:16:20.944Z,-5.38
2023-02-05T05:18:19.189Z,-5.44
2023-02-05T05:20:17.755Z,-5.49
2023-02-05T05:22:15.835Z,-5.50
2023-02-05T05:24:15.498Z,-5.50
2023-02-05T05:26:14.460Z,-5.48
2023-02-05T05:28:13.456Z,-5.39
2023-02-05T05:30:13.051Z,-5.42
2023-02-05T05:32:11.220Z,-5.39
2023-02-05T05:34:09.590Z,-5.36
2023-02-05T05:36:08.651Z,-5.38
2023-02-05T05:38:07.507Z,-5.44
2023-02-05T05:40:26.009Z,-5.47
2023-02-05T05:42:38.161Z,-5.52
2023-02-05T05:44:36.660Z,-5.48
2023-02-05T05:46:35.093Z,-5.45
2023-02-05T05:48:33.282Z,-5.49
2023-02-05T05:50:31.448Z,-5.42
2023-02-05T05:52:32.986Z,-5.39
2023-02-05T05:54:31.513Z,-5.36
2023-02-05T05:56:31.082Z,-5.45
2023-02-05T05:58:29.236Z,-5.41
2023-02-05T06:00:27.408Z,-5.41
2023-02-05T06:02:25.613Z,-5.38
2023-02-05T06:04:24.040Z,-5.48
2023-02-05T06:06:22.549Z,-5.39
2023-02-05T06:08:20.784Z,-5.38
2023-02-05T06:10:19.131Z,-5.43
2023-02-05T06:12:18.669Z,-5.39
2023-02-05T06:14:16.972Z,-5.39
2023-02-05T06:16:15.154Z,-5.19
2023-02-05T06:18:13.283Z,-4.96
2023-02-05T06:20:12.937Z,-5.08
2023-02-05T06:22:11.138Z,-5.19
2023-02-05T06:24:09.588Z,-5.19
2023-02-05T06:26:07.958Z,-5.13
2023-02-05T06:28:07.803Z,-5.08
2023-02-05T06:30:06.692Z,-4.96
2023-02-05T06:32:05.063Z,-5.00
2023-02-05T06:34:03.400Z,-5.07
2023-02-05T06:36:01.817Z,-5.06
2023-02-05T06:37:59.933Z,-5.03
2023-02-05T06:39:58.480Z,-5.03
2023-02-05T06:41:56.603Z,-5.10
2023-02-05T06:43:56.261Z,-5.02
2023-02-05T06:45:55.822Z,-5.01
2023-02-05T06:47:56.172Z,-5.03
2023-02-05T06:49:54.451Z,-4.94
2023-02-05T06:51:52.701Z,-4.92
2023-02-05T06:53:52.748Z,-4.86
2023-02-05T06:55:50.857Z,-4.90
2023-02-05T06:57:49.189Z,-4.92
2023-02-05T06:59:48.873Z,-4.94
2023-02-05T07:01:47.146Z,-4.83
2023-02-05T07:03:45.851Z,-4.71
2023-02-05T07:05:44.150Z,-4.64
2023-02-05T07:07:42.459Z,-4.53
2023-02-05T07:09:40.759Z,-4.43
2023-02-05T07:11:39.062Z,-4.30
2023-02-05T07:13:37.160Z,-4.24
2023-02-05T07:15:38.223Z,-4.20
2023-02-05T07:17:36.386Z,-4.19
2023-02-05T07:19:35.069Z,-4.23
2023-02-05T07:21:33.645Z,-4.33
2023-02-05T07:23:31.692Z,-4.23
2023-02-05T07:25:33.062Z,-4.15
2023-02-05T07:27:31.838Z,-4.21
2023-02-05T07:29:30.271Z,-4.28
2023-02-05T07:31:29.902Z,-4.22
2023-02-05T07:33:27.992Z,-4.23
2023-02-05T07:35:26.346Z,-4.23
2023-02-05T07:37:24.644Z,-4.10
2023-02-05T07:39:22.836Z,-4.01
2023-02-05T07:41:21.054Z,-4.02
2023-02-05T07:43:19.310Z,-3.95
2023-02-05T07:45:17.606Z,-3.98
2023-02-05T07:47:17.190Z,-4.06
2023-02-05T07:49:15.352Z,-4.11
2023-02-05T07:51:18.251Z,-4.05
2023-02-05T07:53:16.388Z,-4.07
2023-02-05T07:55:14.867Z,-4.08
2023-02-05T07:57:13.015Z,-4.04
2023-02-05T07:59:11.682Z,-3.98
2023-02-05T08:01:10.270Z,-3.96
2023-02-05T08:03:10.337Z,-3.97
2023-02-05T08:05:09.233Z,-3.82
2023-02-05T08:07:07.633Z,-3.55
2023-02-05T08:09:05.864Z,-3.36
2023-02-05T08:11:06.691Z,-3.23
2023-02-05T08:13:04.928Z,-3.23
2023-02-05T08:15:03.220Z,-3.16
2023-02-05T08:17:01.470Z,-3.05
2023-02-05T08:19:01.015Z,-2.93
2023-02-05T08:20:59.237Z,-2.85
2023-02-05T08:22:57.432Z,-2.71
2023-02-05T08:24:55.731Z,-2.29
2023-02-05T08:26:54.028Z,-1.96
2023-02-05T08:28:52.115Z,-1.96
2023-02-05T08:30:50.628Z,-2.04
2023-02-05T08:32:50.209Z,-1.94
2023-02-05T08:34:49.787Z,-1.80
2023-02-05T08:36:48.004Z,-1.81
2023-02-05T08:38:46.130Z,-1.91
2023-02-05T08:40:44.399Z,-1.70
2023-02-05T08:42:42.592Z,-1.34
2023-02-05T08:44:40.799Z,-1.32
2023-02-05T08:46:49.642Z,-1.21
2023-02-05T08:48:49.434Z,-1.22
2023-02-05T08:50:49.152Z,-1.27
2023-02-05T08:52:47.567Z,-1.69
2023-02-05T08:54:46.733Z,-1.59
2023-02-05T08:56:46.709Z,-1.37
2023-02-05T08:58:45.125Z,-1.46
2023-02-05T09:00:43.163Z,-1.50
2023-02-05T09:02:42.879Z,-1.79
2023-02-05T09:04:41.188Z,-1.63
2023-02-05T09:06:40.834Z,-1.68
2023-02-05T09:08:39.426Z,-1.62
2023-02-05T09:10:37.787Z,-1.36
2023-02-05T09:12:35.957Z,-1.69
2023-02-05T09:14:36.313Z,-1.83
2023-02-05T09:16:34.724Z,-1.74
2023-02-05T09:18:33.072Z,-2.14
2023-02-05T09:20:31.327Z,-2.12
2023-02-05T09:22:30.924Z,-1.91
2023-02-05T09:24:29.265Z,-2.04
2023-02-05T09:26:27.914Z,-1.74
2023-02-05T09:28:26.119Z,-1.80
2023-02-05T09:30:24.334Z,-1.87
2023-02-05T09:32:22.592Z,-1.91
2023-02-05T09:34:20.816Z,-2.12
2023-02-05T09:36:21.129Z,-2.23
2023-02-05T09:38:20.837Z,-2.13
2023-02-05T09:40:22.088Z,-2.28
2023-02-05T09:42:36.129Z,-2.36
2023-02-05T09:44:51.256Z,-2.39
2023-02-05T09:47:06.948Z,-2.28
2023-02-05T09:49:14.928Z,-2.29
2023-02-05T09:51:13.430Z,-2.28
2023-02-05T09:53:20.464Z,-2.43
2023-02-05T09:55:24.769Z,-2.44
2023-02-05T09:57:33.345Z,-2.46
2023-02-05T09:59:34.503Z,-2.50
2023-02-05T10:01:42.168Z,-2.52
2023-02-05T10:03:45.308Z,-2.51
2023-02-05T10:05:53.974Z,-2.55
2023-02-05T10:08:01.166Z,-2.74
2023-02-05T10:10:26.426Z,-2.71
2023-02-05T10:12:38.719Z,-2.58
2023-02-05T10:14:50.069Z,-2.71
2023-02-05T10:17:13.197Z,-2.42
2023-02-05T10:19:35.331Z,-2.45
2023-02-05T10:21:50.527Z,-2.57
2023-02-05T10:24:01.827Z,-2.53
2023-02-05T10:26:09.747Z,-2.37
2023-02-05T10:28:22.240Z,-2.26
2023-02-05T10:30:28.853Z,-2.24
2023-02-05T10:32:42.376Z,-2.08
2023-02-05T10:34:56.643Z,-2.23
2023-02-05T10:36:55.552Z,-2.19
2023-02-05T10:38:57.489Z,-2.15
2023-02-05T10:41:00.602Z,-2.13
2023-02-05T10:43:04.972Z,-2.13
2023-02-05T10:45:10.800Z,-2.08
2023-02-05T10:47:15.336Z,-2.02
2023-02-05T10:49:16.923Z,-2.12
2023-02-05T10:51:22.880Z,-2.18
2023-02-05T10:53:24.202Z,-2.33
2023-02-05T10:55:22.418Z,-2.30
2023-02-05T10:57:24.012Z,-2.06
2023-02-05T10:59:28.346Z,-1.92
2023-02-05T11:01:32.800Z,-1.95
2023-02-05T11:03:30.859Z,-2.03
2023-02-05T11:05:37.199Z,-2.05
2023-02-05T11:07:40.663Z,-2.00
2023-02-05T11:09:38.986Z,-2.25
2023-02-05T11:11:38.452Z,-2.18
2023-02-05T11:13:43.399Z,-2.21
2023-02-05T11:15:54.622Z,-2.09
2023-02-05T11:17:55.694Z,-2.01
2023-02-05T11:19:55.372Z,-1.78
2023-02-05T11:21:55.801Z,-1.96
2023-02-05T11:23:58.699Z,-2.06
2023-02-05T11:25:59.922Z,-2.17
2023-02-05T11:27:59.369Z,-2.08
2023-02-05T11:30:00.358Z,-1.89
2023-02-05T11:31:59.908Z,-1.62
2023-02-05T11:34:12.969Z,-1.59
2023-02-05T11:36:18.403Z,-1.49
2023-02-05T11:38:32.782Z,-1.17
2023-02-05T11:40:33.710Z,-1.11
2023-02-05T11:42:32.232Z,-1.07
2023-02-05T11:44:35.673Z,-1.02
2023-02-05T11:46:44.645Z,-1.11
2023-02-05T11:48:47.158Z,-0.99
2023-02-05T11:50:47.945Z,-1.02
2023-02-05T11:52:46.863Z,-0.92
2023-02-05T11:54:49.151Z,-1.03
2023-02-05T11:57:01.882Z,-0.74
2023-02-05T11:59:02.103Z,-0.67
2023-02-05T12:01:05.734Z,-0.49
2023-02-05T12:03:07.740Z,-0.16
2023-02-05T12:05:19.831Z,-0.54
2023-02-05T12:07:25.562Z,-0.82
2023-02-05T12:09:25.983Z,-0.85
2023-02-05T12:12:01.032Z,-1.06
2023-02-05T12:14:08.251Z,-0.98
2023-02-05T12:16:14.555Z,-0.89
2023-02-05T12:18:24.783Z,-1.04
2023-02-05T12:20:29.459Z,-0.98
2023-02-05T12:22:40.880Z,-1.15
2023-02-05T12:24:54.325Z,-1.80
2023-02-05T12:27:02.925Z,-1.98
2023-02-05T12:29:11.763Z,-1.80
2023-02-05T12:31:22.278Z,-1.79
2023-02-05T12:33:44.924Z,-1.75
2023-02-05T12:35:55.308Z,-1.64
2023-02-05T12:38:05.170Z,-1.64
2023-02-05T12:40:18.061Z,-1.94
2023-02-05T12:42:35.442Z,-1.89
2023-02-05T12:44:50.524Z,-1.65
2023-02-05T12:47:03.660Z,-1.49
2023-02-05T12:49:19.778Z,-1.34
2023-02-05T12:51:33.530Z,-1.48
2023-02-05T12:53:45.754Z,-1.46
2023-02-05T12:56:01.804Z,-1.43
2023-02-05T12:58:04.733Z,-1.46
2023-02-05T13:00:06.746Z,-1.58
2023-02-05T13:02:18.349Z,-1.69
2023-02-05T13:04:24.139Z,-1.80
2023-02-05T13:06:29.655Z,-1.76
2023-02-05T13:08:38.278Z,-1.98
2023-02-05T13:10:43.507Z,-1.94
2023-02-05T13:12:46.702Z,-1.97
2023-02-05T13:14:54.368Z,-2.06
2023-02-05T13:16:58.240Z,-2.22
2023-02-05T13:19:08.359Z,-2.31
2023-02-05T13:21:33.862Z,-2.43
2023-02-05T13:23:52.614Z,-2.41
2023-02-05T13:26:09.179Z,-2.45
2023-02-05T13:28:41.749Z,-2.50
2023-02-05T13:30:43.724Z,-2.55
2023-02-05T13:32:46.798Z,-2.33
2023-02-05T13:34:45.206Z,-2.39
2023-02-05T13:37:19.772Z,-2.25
2023-02-05T13:39:47.065Z,-2.24
2023-02-05T13:42:06.853Z,-2.44
2023-02-05T13:44:34.514Z,-2.57
2023-02-05T13:47:10.822Z,-2.67
2023-02-05T13:49:31.186Z,-2.66
2023-02-05T13:52:00.419Z,-2.77
2023-02-05T13:54:17.562Z,-2.69
2023-02-05T13:56:46.573Z,-2.92
2023-02-05T13:58:54.804Z,-3.10
2023-02-05T14:01:02.662Z,-3.20
2023-02-05T14:03:05.754Z,-3.04
2023-02-05T14:05:05.879Z,-3.09
2023-02-05T14:07:08.581Z,-3.24
2023-02-05T14:09:09.762Z,-3.32
2023-02-05T14:11:08.374Z,-3.43
2023-02-05T14:13:14.437Z,-3.45
2023-02-05T14:15:37.718Z,-3.59
2023-02-05T14:17:55.665Z,-3.65
2023-02-05T14:19:58.624Z,-3.72
2023-02-05T14:22:08.355Z,-3.72
2023-02-05T14:24:28.557Z,-3.73
2023-02-05T14:26:49.268Z,-3.72
2023-02-05T14:28:51.396Z,-3.91
2023-02-05T14:30:57.300Z,-3.97
2023-02-05T14:33:00.970Z,-3.88
2023-02-05T14:35:00.139Z,-4.02
2023-02-05T14:36:58.468Z,-3.96
2023-02-05T14:39:00.971Z,-3.91
2023-02-05T14:41:04.603Z,-3.93
2023-02-05T14:43:15.513Z,-4.07
2023-02-05T14:45:17.872Z,-4.09
2023-02-05T14:47:22.804Z,-4.16
2023-02-05T14:49:24.922Z,-4.22
2023-02-05T14:51:27.387Z,-4.17
2023-02-05T14:53:29.396Z,-4.15
2023-02-05T14:55:32.680Z,-4.20
2023-02-05T14:57:41.137Z,-4.26
2023-02-05T14:59:45.728Z,-4.34
2023-02-05T15:01:50.333Z,-4.38
2023-02-05T15:03:49.133Z,-4.46
2023-02-05T15:05:54.389Z,-4.43
2023-02-05T15:08:01.527Z,-4.38
2023-02-05T15:10:03.934Z,-4.51
2023-02-05T15:12:24.890Z,-4.63
2023-02-05T15:14:44.472Z,-4.59
2023-02-05T15:16:42.877Z,-4.67
2023-02-05T15:18:44.717Z,-4.71
2023-02-05T15:20:47.471Z,-4.74
2023-02-05T15:22:51.270Z,-4.71
2023-02-05T15:24:50.497Z,-4.81
2023-02-05T15:26:55.958Z,-4.75
2023-02-05T15:29:05.748Z,-4.86
2023-02-05T15:31:22.202Z,-4.90
2023-02-05T15:33:32.888Z,-4.93
2023-02-05T15:35:34.705Z,-4.94
2023-02-05T15:37:37.763Z,-4.91
2023-02-05T15:39:44.376Z,-4.70
2023-02-05T15:41:46.451Z,-4.85
2023-02-05T15:44:00.039Z,-4.93
2023-02-05T15:46:02.789Z,-5.07
2023-02-05T15:48:03.107Z,-5.10
2023-02-05T15:50:02.782Z,-5.04
2023-02-05T15:52:03.195Z,-5.02
2023-02-05T15:54:04.499Z,-5.09
2023-02-05T15:56:09.072Z,-5.08
2023-02-05T15:58:08.217Z,-5.12
2023-02-05T16:00:10.872Z,-5.24
2023-02-05T16:02:18.868Z,-5.23
2023-02-05T16:04:21.216Z,-5.18
2023-02-05T16:06:20.768Z,-5.10
2023-02-05T16:08:23.456Z,-5.11
2023-02-05T16:10:23.891Z,-5.19
2023-02-05T16:12:22.042Z,-5.18
2023-02-05T16:14:22.773Z,-5.22
2023-02-05T16:16:24.556Z,-5.20
2023-02-05T16:18:32.636Z,-5.07
2023-02-05T16:20:34.390Z,-5.10
2023-02-05T16:22:39.109Z,-5.10
2023-02-05T16:24:43.400Z,-5.07
2023-02-05T16:26:47.665Z,-5.01
2023-02-05T16:28:49.546Z,-5.05
2023-02-05T16:30:50.263Z,-5.04
2023-02-05T16:32:49.606Z,-5.04
2023-02-05T16:34:48.310Z,-5.09
2023-02-05T16:36:50.234Z,-5.10
2023-02-05T16:38:52.756Z,-5.16
2023-02-05T16:40:55.012Z,-5.16
2023-02-05T16:42:53.138Z,-5.16
2023-02-05T16:45:03.853Z,-5.18
2023-02-05T16:47:14.796Z,-5.18
2023-02-05T16:49:31.238Z,-5.18
2023-02-05T16:51:33.206Z,-5.27
2023-02-05T16:53:33.883Z,-5.33
2023-02-05T16:55:42.396Z,-5.27
2023-02-05T16:57:42.152Z,-5.22
2023-02-05T16:59:53.018Z,-5.21
2023-02-05T17:01:52.383Z,-5.18
2023-02-05T17:03:51.953Z,-5.14
2023-02-05T17:06:00.200Z,-5.13
2023-02-05T17:08:00.672Z,-5.11
2023-02-05T17:10:17.835Z,-5.19
2023-02-05T17:12:41.367Z,-5.23
2023-02-05T17:14:41.109Z,-5.25
2023-02-05T17:16:42.341Z,-5.24
2023-02-05T17:18:42.126Z,-5.14
2023-02-05T17:20:40.539Z,-5.17
2023-02-05T17:22:38.697Z,-5.17
2023-02-05T17:24:36.978Z,-5.25
2023-02-05T17:26:40.972Z,-5.33
2023-02-05T17:28:43.869Z,-5.30
2023-02-05T17:30:45.292Z,-5.31
2023-02-05T17:32:48.725Z,-5.28
2023-02-05T17:35:00.407Z,-5.35
2023-02-05T17:36:58.795Z,-5.34
2023-02-05T17:38:57.503Z,-5.24
2023-02-05T17:41:15.752Z,-5.24
2023-02-05T17:43:14.111Z,-5.32
2023-02-05T17:45:17.352Z,-5.18
2023-02-05T17:47:17.185Z,-5.11
2023-02-05T17:49:15.343Z,-4.72
2023-02-05T17:51:20.307Z,-4.96
2023-02-05T17:53:21.381Z,-5.07
2023-02-05T17:55:21.553Z,-5.12
2023-02-05T17:57:21.620Z,-5.22
2023-02-05T17:59:22.653Z,-5.27
2023-02-05T18:01:20.887Z,-5.31
2023-02-05T18:03:20.643Z,-5.30
2023-02-05T18:05:20.482Z,-5.32
2023-02-05T18:07:24.279Z,-5.29
2023-02-05T18:09:22.797Z,-5.33
2023-02-05T18:11:21.111Z,-5.28
2023-02-05T18:13:19.523Z,-5.23
2023-02-05T18:15:17.797Z,-5.27
2023-02-05T18:17:16.059Z,-5.19
2023-02-05T18:19:15.878Z,-5.14
2023-02-05T18:21:14.125Z,-5.22
2023-02-05T18:23:18.687Z,-5.30
2023-02-05T18:25:22.644Z,-5.36
2023-02-05T18:27:20.920Z,-5.36
2023-02-05T18:29:19.092Z,-5.32
2023-02-05T18:31:17.572Z,-5.31
2023-02-05T18:33:19.673Z,-5.32
2023-02-05T18:35:19.758Z,-5.39
2023-02-05T18:37:18.088Z,-5.37
2023-02-05T18:39:16.372Z,-5.36
2023-02-05T18:41:17.055Z,-5.36
2023-02-05T18:43:24.255Z,-5.33
2023-02-05T18:45:22.537Z,-5.29
2023-02-05T18:47:20.848Z,-5.29
2023-02-05T18:49:19.289Z,-5.27
2023-02-05T18:51:21.903Z,-5.29
2023-02-05T18:53:20.269Z,-5.39
2023-02-05T18:55:18.541Z,-5.38
2023-02-05T18:57:16.763Z,-5.41
2023-02-05T18:59:18.175Z,-5.44
2023-02-05T19:01:19.175Z,-5.46
2023-02-05T19:03:17.574Z,-5.51
2023-02-05T19:05:16.115Z,-5.51
2023-02-05T19:07:16.530Z,-5.55
2023-02-05T19:09:14.803Z,-5.56
2023-02-05T19:11:15.155Z,-5.55
2023-02-05T19:13:20.956Z,-5.57
2023-02-05T19:15:19.341Z,-5.61
2023-02-05T19:17:17.881Z,-5.65
2023-02-05T19:19:18.741Z,-5.63
2023-02-05T19:21:18.592Z,-5.55
2023-02-05T19:23:18.322Z,-5.56
2023-02-05T19:25:17.411Z,-5.63
2023-02-05T19:27:17.061Z,-5.64
2023-02-05T19:29:17.631Z,-5.63
2023-02-05T19:31:17.063Z,-5.68
2023-02-05T19:33:15.688Z,-5.67
2023-02-05T19:35:13.912Z,-5.63
2023-02-05T19:37:12.485Z,-5.39
2023-02-05T19:39:15.025Z,-5.28
2023-02-05T19:41:14.892Z,-5.41
2023-02-05T19:43:17.803Z,-5.51
2023-02-05T19:45:16.236Z,-5.56
2023-02-05T19:47:15.868Z,-5.55
2023-02-05T19:49:15.668Z,-5.57
2023-02-05T19:51:15.529Z,-5.60
2023-02-05T19:53:13.818Z,-5.69
2023-02-05T19:55:13.644Z,-5.66
2023-02-05T19:57:12.426Z,-5.66
2023-02-05T19:59:11.340Z,-5.70
2023-02-05T20:01:13.695Z,-5.70
2023-02-05T20:03:13.901Z,-5.62
2023-02-05T20:05:12.767Z,-5.53
2023-02-05T20:07:12.368Z,-5.52
2023-02-05T20:09:12.084Z,-5.51
2023-02-05T20:11:12.055Z,-5.55
2023-02-05T20:13:11.219Z,-5.59
2023-02-05T20:15:10.894Z,-5.64
2023-02-05T20:17:09.201Z,-5.58
2023-02-05T20:19:10.197Z,-5.59
2023-02-05T20:21:09.663Z,-5.58
2023-02-05T20:23:08.387Z,-5.60
2023-02-05T20:25:07.362Z,-5.61
2023-02-05T20:27:07.018Z,-5.65
2023-02-05T20:29:23.086Z,-5.61
2023-02-05T20:31:41.474Z,-5.65
2023-02-05T20:33:40.283Z,-5.66
2023-02-05T20:35:39.330Z,-5.68
2023-02-05T20:37:37.666Z,-5.70
2023-02-05T20:39:39.793Z,-5.70
2023-02-05T20:41:38.192Z,-5.69
2023-02-05T20:43:37.656Z,-5.66
2023-02-05T20:45:35.936Z,-5.69
2023-02-05T20:47:34.377Z,-5.69
2023-02-05T20:49:32.643Z,-5.67
2023-02-05T20:51:31.419Z,-5.67
2023-02-05T20:53:29.635Z,-5.64
2023-02-05T20:55:27.814Z,-5.67
2023-02-05T20:57:26.090Z,-5.56
2023-02-05T20:59:26.341Z,-5.57
2023-02-05T21:01:26.666Z,-5.56
2023-02-05T21:03:25.144Z,-5.61
2023-02-05T21:05:23.751Z,-5.64
2023-02-05T21:07:29.446Z,-5.67
2023-02-05T21:09:27.638Z,-5.67
2023-02-05T21:11:29.824Z,-5.72
2023-02-05T21:13:28.078Z,-5.68
2023-02-05T21:15:31.766Z,-5.66
2023-02-05T21:17:30.560Z,-5.69
2023-02-05T21:19:28.665Z,-5.71
2023-02-05T21:21:28.634Z,-5.74
2023-02-05T21:23:27.062Z,-5.71
2023-02-05T21:25:25.128Z,-5.58
2023-02-05T21:27:25.118Z,-5.59
2023-02-05T21:29:23.472Z,-5.63
2023-02-05T21:31:24.273Z,-5.68
2023-02-05T21:33:22.412Z,-5.73
2023-02-05T21:35:22.088Z,-5.70
2023-02-05T21:37:20.558Z,-5.72
2023-02-05T21:39:20.572Z,-5.74
2023-02-05T21:41:20.172Z,-5.74
2023-02-05T21:43:18.532Z,-5.76
2023-02-05T21:45:16.997Z,-5.82
2023-02-05T21:47:16.681Z,-5.83
2023-02-05T21:49:15.159Z,-5.78
2023-02-05T21:51:14.897Z,-5.77
2023-02-05T21:53:13.295Z,-5.83
2023-02-05T21:55:11.396Z,-5.85
2023-02-05T21:57:10.029Z,-5.92
2023-02-05T21:59:08.694Z,-5.91
2023-02-05T22:01:18.071Z,-5.86
2023-02-05T22:03:17.808Z,-5.88
2023-02-05T22:05:16.234Z,-5.81
2023-02-05T22:07:14.488Z,-5.77
2023-02-05T22:09:15.250Z,-5.83
2023-02-05T22:11:13.526Z,-5.87
2023-02-05T22:13:11.700Z,-5.83
2023-02-05T22:15:12.478Z,-5.75
2023-02-05T22:17:10.710Z,-5.69
2023-02-05T22:19:11.032Z,-5.66
2023-02-05T22:21:12.431Z,-5.65
2023-02-05T22:23:10.649Z,-5.64
2023-02-05T22:25:09.075Z,-5.74
2023-02-05T22:27:07.561Z,-5.83
2023-02-05T22:29:06.693Z,-5.84
2023-02-05T22:31:08.076Z,-5.87
2023-02-05T22:33:06.250Z,-5.84
2023-02-05T22:35:06.175Z,-5.86
2023-02-05T22:37:04.550Z,-5.87
2023-02-05T22:39:03.139Z,-5.90
2023-02-05T22:41:01.721Z,-5.84
2023-02-05T22:42:59.946Z,-5.80
2023-02-05T22:44:58.132Z,-5.81
2023-02-05T22:46:56.473Z,-5.82
2023-02-05T22:48:55.547Z,-5.86
2023-02-05T22:50:55.231Z,-5.92
2023-02-05T22:52:53.491Z,-5.95
2023-02-05T22:54:51.701Z,-5.98
2023-02-05T22:56:50.034Z,-5.95
2023-02-05T22:58:49.300Z,-5.92
2023-02-05T23:00:47.494Z,-5.91
2023-02-05T23:02:46.489Z,-5.93
2023-02-05T23:04:44.593Z,-5.93
2023-02-05T23:06:45.315Z,-5.95
2023-02-05T23:08:43.842Z,-5.93
2023-02-05T23:10:42.011Z,-5.93
2023-02-05T23:12:40.297Z,-5.90
2023-02-05T23:14:38.601Z,-5.89
2023-02-05T23:16:39.377Z,-5.86
2023-02-05T23:18:38.705Z,-5.83
2023-02-05T23:20:36.992Z,-5.82
2023-02-05T23:22:36.563Z,-5.79
2023-02-05T23:24:37.287Z,-5.80
2023-02-05T23:26:38.685Z,-5.79
2023-02-05T23:28:37.526Z,-5.83
2023-02-05T23:30:35.636Z,-5.84
2023-02-05T23:32:34.000Z,-5.82
2023-02-05T23:34:32.276Z,-5.83
2023-02-05T23:36:30.595Z,-5.83
2023-02-05T23:38:30.089Z,-5.95
2023-02-05T23:40:28.410Z,-6.01
2023-02-05T23:42:26.676Z,-5.93
2023-02-05T23:44:24.916Z,-5.93
2023-02-05T23:46:23.304Z,-5.99
2023-02-05T23:48:22.047Z,-6.02
2023-02-05T23:50:20.385Z,-6.03
2023-02-05T23:52:18.625Z,-6.09
2023-02-05T23:54:18.429Z,-6.03
2023-02-05T23:56:16.757Z,-6.09
2023-02-05T23:58:15.118Z,-6.08
